Time;durP1;ratioP1;P1;durP2;ratioP2;P2;SDS_P1;SDS_P2;PMS_P1;PMS_P2;Temp;Humidity;BMP_temperature;BMP_pressure;BME280_temperature;BME280_humidity;BME280_pressure;Samples;Min_cycle;Max_cycle;Signal;HPM_P1;HPM_P2
2023/06/24 00:00:26;;;;;;;;;4.67;3.67;;;;;24.38;45.98;101987.25;6193055;23;45244;-69
2023/06/24 00:02:53;;;;;;;;;4.33;3.33;;;;;24.46;45.89;102004.47;6193431;23;44954;-69
2023/06/24 00:05:19;;;;;;;;;9.67;7.67;;;;;24.30;46.14;101972.78;6193053;23;45543;-70
2023/06/24 00:07:44;;;;;;;;;6.67;6.67;;;;;24.48;46.17;101993.53;6192419;23;45086;-68
2023/06/24 00:10:12;;;;;;;;;7.33;6.00;;;;;24.44;46.08;101987.19;6192390;23;44915;-70
2023/06/24 00:12:39;;;;;;;;;8.67;4.67;;;;;24.47;45.54;101998.09;6192684;23;45076;-72
2023/06/24 00:15:06;;;;;;;;;6.67;6.00;;;;;24.30;45.38;101972.78;6191836;23;45539;-69
2023/06/24 00:17:31;;;;;;;;;4.67;4.67;;;;;23.86;45.62;101889.56;6192007;23;45191;-70
2023/06/24 00:19:56;;;;;;;;;5.00;4.67;;;;;24.46;45.46;101992.66;6191568;23;45001;-68
2023/06/24 00:22:22;;;;;;;;;7.00;6.00;;;;;24.41;45.64;101995.44;6193676;23;45037;-71
2023/06/24 00:24:47;;;;;;;;;4.67;4.67;;;;;24.43;45.53;101999.03;6192962;23;46151;-70
2023/06/24 00:27:13;;;;;;;;;7.00;7.00;;;;;24.34;45.80;101977.31;6192511;23;45000;-67
2023/06/24 00:29:38;;;;;;;;;7.00;5.33;;;;;24.39;45.29;101991.81;6191882;23;44976;-68
2023/06/24 00:32:04;;;;;;;;;11.33;9.67;;;;;24.31;45.29;101962.78;6191991;23;45099;-69
2023/06/24 00:34:29;;;;;;;;;7.00;6.00;;;;;24.41;45.98;101991.78;6192832;23;45292;-65
2023/06/24 00:36:55;;;;;;;;;7.67;4.00;;;;;24.23;45.76;101957.41;6191483;23;44899;-70
2023/06/24 00:39:20;;;;;;;;;4.00;4.00;;;;;24.38;45.39;101989.09;6166360;23;44915;-62
2023/06/24 00:41:46;;;;;;;;;5.00;5.00;;;;;24.38;45.48;101995.44;6166665;23;45216;-63
2023/06/24 00:44:12;;;;;;;;;9.67;8.67;;;;;24.37;45.25;101990.00;6192673;23;45820;-66
2023/06/24 00:46:39;;;;;;;;;5.67;5.67;;;;;24.35;45.32;101989.13;6193430;23;44890;-65
2023/06/24 00:49:05;;;;;;;;;5.00;5.00;;;;;24.31;45.32;101988.25;6192071;23;45036;-68
2023/06/24 00:51:31;;;;;;;;;4.00;4.00;;;;;24.20;45.69;101976.53;6193174;23;45163;-72
2023/06/24 00:53:58;;;;;;;;;3.00;3.00;;;;;24.24;45.50;101979.22;6193048;23;45065;-72
2023/06/24 00:56:29;;;;;;;;;5.00;5.00;;;;;24.09;45.53;101963.91;6192942;23;44956;-68
2023/06/24 00:58:58;;;;;;;;;6.00;5.00;;;;;23.79;45.92;101912.31;6192895;23;44991;-68
2023/06/24 01:01:24;;;;;;;;;8.67;6.00;;;;;24.03;45.67;101961.25;6166099;23;45244;-67
2023/06/24 01:03:49;;;;;;;;;3.33;3.33;;;;;24.16;45.83;101997.53;6142427;23;46069;-63
2023/06/24 01:06:16;;;;;;;;;6.00;4.33;;;;;24.06;46.19;101973.97;6193055;23;44875;-65
2023/06/24 01:08:41;;;;;;;;;6.67;6.67;;;;;23.57;46.09;101887.09;6191967;23;45035;-65
2023/06/24 01:11:07;;;;;;;;;7.67;4.00;;;;;24.14;46.18;101996.66;6196228;23;45107;-64
2023/06/24 01:13:32;;;;;;;;;2.00;2.00;;;;;23.54;46.38;101891.66;6195304;23;45251;-67
2023/06/24 01:16:02;;;;;;;;;6.33;4.33;;;;;24.05;46.35;101981.22;6196688;23;45025;-72
2023/06/24 01:18:46;;;;;;;;;14.67;7.00;;;;;24.10;46.42;101992.13;6196965;23;44965;-69
2023/06/24 01:21:42;;;;;;;;;6.67;6.67;;;;;23.91;46.10;101954.09;6196598;23;44976;-62
2023/06/24 01:24:36;;;;;;;;;4.00;4.00;;;;;24.07;46.35;101982.16;6195459;23;45795;-66
2023/06/24 01:27:25;;;;;;;;;6.00;6.00;;;;;24.06;46.78;101988.53;6191033;23;44854;-64
2023/06/24 01:30:02;;;;;;;;;3.67;3.67;;;;;24.02;46.35;101978.56;6195734;23;44926;-68
2023/06/24 01:32:38;;;;;;;;;4.67;4.00;;;;;24.02;46.79;101980.38;6195841;23;44795;-63
2023/06/24 01:35:13;;;;;;;;;5.00;4.33;;;;;24.00;46.84;101985.84;6194355;23;45559;-65
2023/06/24 01:37:48;;;;;;;;;6.33;6.33;;;;;23.86;46.92;101966.88;6196082;23;44892;-65
2023/06/24 01:40:27;;;;;;;;;6.00;3.00;;;;;23.85;46.92;101965.06;6195662;23;45000;-71
2023/06/24 01:42:55;;;;;;;;;4.33;4.33;;;;;23.88;46.78;101978.69;6193964;23;44947;-71
2023/06/24 01:45:24;;;;;;;;;5.00;3.33;;;;;23.83;47.06;101977.81;6167143;23;46188;-72
2023/06/24 01:47:59;;;;;;;;;4.67;4.67;;;;;23.59;46.86;101942.53;6193753;23;45061;-70
2023/06/24 01:50:26;;;;;;;;;9.33;8.33;;;;;23.71;47.21;101962.44;6192644;23;44868;-67
2023/06/24 01:52:54;;;;;;;;;17.67;11.67;;;;;23.77;47.12;101966.03;6192717;23;44967;-66
2023/06/24 01:55:21;;;;;;;;;9.00;6.67;;;;;23.69;47.34;101956.09;6191888;23;45759;-75
2023/06/24 01:57:49;;;;;;;;;3.67;3.67;;;;;23.73;46.93;101970.59;6193080;23;44879;-71
2023/06/24 02:00:16;;;;;;;;;6.67;6.67;;;;;23.73;47.31;101965.16;6192631;23;45635;-71
2023/06/24 02:02:44;;;;;;;;;4.00;4.00;;;;;23.73;47.32;101968.78;6192197;23;45059;-63
2023/06/24 02:05:11;;;;;;;;;2.00;2.00;;;;;23.70;47.58;101966.06;6190582;23;45398;-64
2023/06/24 02:07:38;;;;;;;;;10.00;6.00;;;;;23.70;47.45;101960.59;6191137;23;45034;-65
2023/06/24 02:10:07;;;;;;;;;6.00;4.00;;;;;23.64;47.24;101952.50;6190249;23;44944;-72
2023/06/24 02:12:33;;;;;;;;;4.00;4.00;;;;;23.61;47.18;101949.78;6191763;23;44985;-66
2023/06/24 02:15:04;;;;;;;;;5.00;4.33;;;;;23.66;47.50;101964.31;6192400;23;45082;-67
2023/06/24 02:17:30;;;;;;;;;6.67;4.67;;;;;23.65;47.74;101972.50;6190611;23;45158;-68
2023/06/24 02:19:57;;;;;;;;;4.67;1.33;;;;;23.62;47.83;101969.78;6192513;23;44948;-71
2023/06/24 02:22:23;;;;;;;;;3.33;3.33;;;;;23.63;47.80;101972.50;6193356;23;45037;-71
2023/06/24 02:24:50;;;;;;;;;5.33;4.00;;;;;23.57;47.58;101958.91;6191703;23;47331;-69
2023/06/24 02:27:17;;;;;;;;;12.67;4.00;;;;;23.58;47.58;101970.72;6192266;23;44910;-67
2023/06/24 02:29:43;;;;;;;;;6.00;4.33;;;;;23.53;48.10;101960.75;6192425;23;44795;-75
2023/06/24 02:32:09;;;;;;;;;7.67;4.00;;;;;23.49;47.76;101969.88;6192182;23;45154;-75
2023/06/24 02:34:34;;;;;;;;;3.33;3.33;;;;;23.48;48.23;101970.81;6165555;23;45364;-75
2023/06/24 02:37:00;;;;;;;;;5.00;2.67;;;;;23.54;47.97;101973.50;6192322;23;45195;-75
2023/06/24 02:39:25;;;;;;;;;5.00;5.00;;;;;23.33;48.06;101941.84;6192464;23;45251;-76
2023/06/24 02:41:50;;;;;;;;;5.00;5.00;;;;;23.45;48.04;101972.66;6192381;23;45056;-76
2023/06/24 02:44:16;;;;;;;;;5.00;3.33;;;;;23.12;48.25;101915.63;6191834;23;45823;-75
2023/06/24 02:46:45;;;;;;;;;3.67;3.67;;;;;23.43;48.25;101977.19;6192387;23;45084;-70
2023/06/24 02:49:13;;;;;;;;;4.33;3.00;;;;;23.36;48.23;101962.69;6192991;23;44997;-76
2023/06/24 02:51:39;;;;;;;;;6.00;4.33;;;;;23.43;48.46;101975.41;6191709;23;44972;-75
2023/06/24 02:54:05;;;;;;;;;7.33;4.67;;;;;23.40;48.26;101969.06;6193150;23;45585;-69
2023/06/24 02:56:31;;;;;;;;;4.67;4.67;;;;;23.31;48.07;101956.38;6192604;23;45016;-75
2023/06/24 02:58:57;;;;;;;;;6.00;5.00;;;;;23.31;48.28;101964.56;6192272;23;44951;-66
2023/06/24 03:01:25;;;;;;;;;5.00;3.33;;;;;23.36;48.30;101970.88;6192375;23;45063;-67
2023/06/24 03:03:55;;;;;;;;;11.67;5.33;;;;;23.37;48.45;101973.59;6164686;23;46793;-64
2023/06/24 03:06:21;;;;;;;;;7.00;6.67;;;;;22.98;48.37;101903.88;6192311;23;45119;-69
2023/06/24 03:08:50;;;;;;;;;8.00;7.00;;;;;23.32;48.31;101969.13;6192370;23;44949;-73
2023/06/24 03:11:16;;;;;;;;;6.67;5.00;;;;;23.32;48.47;101974.56;6166240;23;45287;-73
2023/06/24 03:13:43;;;;;;;;;4.33;4.00;;;;;23.30;48.70;101969.13;6193525;23;45584;-75
2023/06/24 03:16:12;;;;;;;;;11.00;10.00;;;;;23.15;48.78;101947.44;6167156;23;44898;-74
2023/06/24 03:18:40;;;;;;;;;7.67;7.00;;;;;23.10;48.59;101947.44;6167398;23;45149;-75
2023/06/24 03:21:06;;;;;;;;;5.67;5.33;;;;;23.27;48.96;101970.97;6193753;23;44999;-73
2023/06/24 03:23:31;;;;;;;;;6.00;4.00;;;;;23.26;48.85;101974.59;6177144;23;45923;-73
2023/06/24 03:25:57;;;;;;;;;5.67;4.33;;;;;23.16;48.88;101966.50;6162295;23;45226;-77
2023/06/24 03:28:22;;;;;;;;;3.00;3.00;;;;;23.11;49.04;101957.41;6163327;23;44910;-75
2023/06/24 03:30:47;;;;;;;;;4.00;3.67;;;;;23.04;48.94;101944.72;6152885;23;45214;-77
2023/06/24 03:33:16;;;;;;;;;4.00;4.00;;;;;23.17;49.21;101971.03;6124604;23;47844;-71
2023/06/24 03:35:42;;;;;;;;;4.00;4.00;;;;;23.11;48.99;101968.31;6151401;23;45346;-73
2023/06/24 03:38:08;;;;;;;;;3.00;3.00;;;;;23.06;49.00;101958.34;6152216;23;45440;-72
2023/06/24 03:40:33;;;;;;;;;9.00;6.33;;;;;23.13;49.09;101968.31;6153095;23;45403;-70
2023/06/24 03:42:58;;;;;;;;;5.67;3.00;;;;;23.03;49.39;101961.97;6125701;23;47700;-70
2023/06/24 03:45:24;;;;;;;;;3.00;3.00;;;;;23.08;49.11;101976.56;6151268;23;45368;-71
2023/06/24 03:47:49;;;;;;;;;4.00;4.00;;;;;23.01;49.29;101972.00;6127526;23;45278;-64
2023/06/24 03:50:15;;;;;;;;;6.67;5.00;;;;;22.94;49.10;101960.22;6153743;23;45340;-69
2023/06/24 03:52:40;;;;;;;;;6.33;6.33;;;;;22.97;49.62;101976.56;6151979;23;45333;-72
2023/06/24 03:55:06;;;;;;;;;6.67;6.00;;;;;22.96;49.57;101982.00;6151356;23;45346;-65
2023/06/24 03:57:31;;;;;;;;;4.33;3.00;;;;;22.90;49.75;101982.03;6150405;23;45336;-74
2023/06/24 03:59:56;;;;;;;;;5.33;4.00;;;;;22.86;49.87;101983.88;6151337;23;45411;-63
2023/06/24 04:02:22;;;;;;;;;7.67;5.00;;;;;22.88;50.05;101983.88;6126821;23;50821;-73
2023/06/24 04:04:50;;;;;;;;;3.67;3.33;;;;;22.85;49.94;101982.09;6154478;23;45363;-70
2023/06/24 04:07:26;;;;;;;;;5.33;5.33;;;;;22.91;50.11;101992.03;6151224;23;45375;-67
2023/06/24 04:09:54;;;;;;;;;7.00;5.00;;;;;22.79;49.91;101979.38;6151382;23;45237;-65
2023/06/24 04:12:19;;;;;;;;;6.33;5.67;;;;;22.87;49.81;101985.72;6147684;23;47224;-70
2023/06/24 04:14:45;;;;;;;;;4.67;4.67;;;;;22.94;49.89;102002.94;6148912;23;45668;-66
2023/06/24 04:17:10;;;;;;;;;5.67;4.33;;;;;22.86;50.08;101982.97;6150303;23;45410;-65
2023/06/24 04:19:35;;;;;;;;;7.00;6.00;;;;;22.88;49.82;101986.59;6150779;23;45533;-76
2023/06/24 04:22:04;;;;;;;;;7.33;6.33;;;;;22.88;49.81;101989.31;6151542;23;45468;-68
2023/06/24 04:24:29;;;;;;;;;3.00;3.00;;;;;22.90;49.80;101990.22;6179895;23;45463;-70
2023/06/24 04:26:55;;;;;;;;;4.00;4.00;;;;;22.77;49.49;101967.59;6154408;23;45821;-74
2023/06/24 04:29:20;;;;;;;;;6.00;5.67;;;;;22.92;49.37;101994.75;6156432;23;45359;-71
2023/06/24 04:31:46;;;;;;;;;4.00;4.00;;;;;22.91;49.84;101990.22;6182732;23;45398;-68
2023/06/24 04:34:11;;;;;;;;;5.00;3.67;;;;;22.95;49.79;101994.75;6180925;23;45260;-68
2023/06/24 04:36:36;;;;;;;;;5.00;5.00;;;;;22.98;49.48;101988.34;6181281;23;45526;-68
2023/06/24 04:39:02;;;;;;;;;7.33;6.00;;;;;22.98;49.56;101989.28;6156122;23;45364;-68
2023/06/24 04:41:27;;;;;;;;;7.00;6.33;;;;;23.00;49.61;101986.56;6186197;23;45635;-67
2023/06/24 04:43:53;;;;;;;;;7.00;5.00;;;;;22.94;49.58;101979.31;6163457;23;45011;-65
2023/06/24 04:46:19;;;;;;;;;6.33;5.33;;;;;22.97;49.49;101982.00;6191612;23;45068;-63
2023/06/24 04:48:44;;;;;;;;;4.67;4.00;;;;;23.00;49.70;101983.84;6191454;23;44988;-66
2023/06/24 04:51:09;;;;;;;;;8.67;4.67;;;;;22.92;49.72;101967.50;6192670;23;51787;-64
2023/06/24 04:53:35;;;;;;;;;30.75;27.25;;;;;23.05;49.51;101997.41;6190993;23;44946;-64
2023/06/24 04:56:00;;;;;;;;;9.67;8.00;;;;;23.02;49.49;102000.19;6191163;23;45214;-63
2023/06/24 04:58:25;;;;;;;;;7.67;6.67;;;;;22.94;49.76;101981.13;6192065;23;45111;-65
2023/06/24 05:00:51;;;;;;;;;4.67;4.00;;;;;23.00;49.74;101997.47;6191523;23;45371;-68
2023/06/24 05:03:16;;;;;;;;;11.67;7.33;;;;;22.92;49.59;101988.41;6190829;23;44933;-70
2023/06/24 05:05:41;;;;;;;;;4.33;4.33;;;;;22.97;49.58;101998.38;6190665;23;45093;-66
2023/06/24 05:08:07;;;;;;;;;8.00;5.67;;;;;22.97;49.44;101992.03;6192594;23;45204;-71
2023/06/24 05:10:32;;;;;;;;;5.33;4.67;;;;;22.98;49.52;102000.19;6190924;23;45779;-69
2023/06/24 05:12:57;;;;;;;;;6.33;5.00;;;;;22.98;49.39;101991.09;6191725;23;44823;-69
2023/06/24 05:15:23;;;;;;;;;6.67;5.00;;;;;22.90;49.65;101982.97;6193607;23;45051;-67
2023/06/24 05:17:48;;;;;;;;;8.00;5.00;;;;;22.86;49.74;101975.72;6165748;23;45200;-65
2023/06/24 05:20:14;;;;;;;;;4.67;3.67;;;;;22.93;49.52;101990.19;6193528;23;46483;-70
2023/06/24 05:22:39;;;;;;;;;7.67;6.00;;;;;22.98;49.19;101993.81;6190787;23;44980;-66
2023/06/24 05:25:05;;;;;;;;;11.00;7.67;;;;;22.95;49.39;101994.75;6190859;23;44988;-67
2023/06/24 05:27:30;;;;;;;;;7.67;7.00;;;;;22.78;49.49;101969.38;6192660;23;45179;-67
2023/06/24 05:29:56;;;;;;;;;5.00;5.00;;;;;22.86;49.36;101974.81;6191731;23;45300;-67
2023/06/24 05:32:21;;;;;;;;;7.00;6.00;;;;;22.91;49.42;101983.88;6191807;23;44997;-66
2023/06/24 05:34:47;;;;;;;;;6.00;5.33;;;;;23.02;49.29;102005.63;6192025;23;45052;-69
2023/06/24 05:37:12;;;;;;;;;8.67;5.67;;;;;22.87;49.33;101965.69;6164793;23;45158;-68
2023/06/24 05:39:38;;;;;;;;;5.00;4.33;;;;;22.96;49.21;101979.28;6191160;23;46139;-70
2023/06/24 05:42:03;;;;;;;;;5.33;5.33;;;;;23.10;49.01;102001.03;6190632;23;44970;-72
2023/06/24 05:44:29;;;;;;;;;6.00;3.00;;;;;23.10;48.95;101995.59;6192055;23;45728;-68
2023/06/24 05:46:54;;;;;;;;;5.00;4.00;;;;;23.10;49.10;101999.25;6191192;23;44920;-66
2023/06/24 05:49:19;;;;;;;;;6.33;5.00;;;;;23.06;48.97;101991.94;6164500;23;54603;-68
2023/06/24 05:51:45;;;;;;;;;4.33;3.33;;;;;23.12;49.43;102004.69;6193449;23;44924;-72
2023/06/24 05:54:10;;;;;;;;;6.00;4.67;;;;;23.15;49.11;101999.22;6194461;23;45009;-73
2023/06/24 05:56:37;;;;;;;;;8.67;7.67;;;;;23.18;49.39;102007.34;6194735;23;44946;-74
2023/06/24 05:59:02;;;;;;;;;7.33;5.00;;;;;22.82;48.73;101935.78;6195418;23;45908;-77
2023/06/24 06:01:27;;;;;;;;;8.33;5.33;;;;;23.21;48.74;101996.44;6192689;23;45176;-76
2023/06/24 06:03:53;;;;;;;;;11.00;7.67;;;;;23.27;48.59;101995.50;6192912;23;45009;-77
2023/06/24 06:06:18;;;;;;;;;7.67;5.67;;;;;23.28;48.72;101992.78;6194825;23;44787;-68
2023/06/24 06:08:44;;;;;;;;;5.33;5.33;;;;;23.24;47.98;101980.06;6193663;23;45355;-76
2023/06/24 06:11:09;;;;;;;;;5.67;5.33;;;;;23.41;48.29;102006.31;6193751;23;44957;-76
2023/06/24 06:13:35;;;;;;;;;6.33;6.33;;;;;23.37;48.20;101992.69;6194915;23;45390;-75
2023/06/24 06:16:00;;;;;;;;;8.00;5.00;;;;;23.41;48.17;101993.56;6168704;23;45264;-69
2023/06/24 06:18:25;;;;;;;;;56.00;43.75;;;;;23.37;47.92;101980.88;6194824;23;45613;-72
2023/06/24 06:20:51;;;;;;;;;11.33;10.33;;;;;23.47;47.47;101998.09;6195942;23;44950;-77
2023/06/24 06:23:16;;;;;;;;;16.33;14.67;;;;;23.19;47.44;101954.66;6193795;23;44908;-78
2023/06/24 06:25:43;;;;;;;;;6.00;5.67;;;;;23.48;47.28;101991.72;6190439;23;45299;-67
2023/06/24 06:28:08;;;;;;;;;6.67;6.67;;;;;23.45;46.64;101986.31;6191408;23;45710;-71
2023/06/24 06:30:34;;;;;;;;;9.00;7.00;;;;;23.32;46.88;101961.81;6194130;23;44881;-77
2023/06/24 06:32:59;;;;;;;;;26.50;26.50;;;;;23.51;46.98;101999.88;6193702;23;45031;-70
2023/06/24 06:35:24;;;;;;;;;6.33;5.33;;;;;23.53;46.51;101992.59;6194919;23;45080;-73
2023/06/24 06:37:54;;;;;;;;;8.67;6.00;;;;;23.52;46.39;101990.78;6195264;23;45729;-73
2023/06/24 06:40:23;;;;;;;;;5.33;4.00;;;;;23.62;46.57;102002.53;6195616;23;45123;-75
2023/06/24 06:42:49;;;;;;;;;8.00;6.00;;;;;23.67;46.78;101997.94;6166667;23;45174;-75
2023/06/24 06:45:15;;;;;;;;;6.00;6.00;;;;;23.67;46.67;101987.03;6194309;23;45087;-76
2023/06/24 06:47:41;;;;;;;;;6.00;6.00;;;;;23.73;46.43;101982.41;6191276;23;46183;-75
2023/06/24 06:50:07;;;;;;;;;7.33;6.00;;;;;23.88;46.66;102002.34;6193552;23;44895;-74
2023/06/24 06:52:33;;;;;;;;;7.00;4.00;;;;;23.87;46.20;101989.59;6194284;23;44859;-71
2023/06/24 06:54:58;;;;;;;;;7.33;6.00;;;;;23.94;45.73;101999.56;6194427;23;44849;-68
2023/06/24 06:57:24;;;;;;;;;5.00;5.00;;;;;23.74;45.67;101967.88;6188180;23;45506;-73
2023/06/24 06:59:51;;;;;;;;;7.00;4.67;;;;;23.97;45.25;101995.88;6184042;23;45654;-70
2023/06/24 07:02:17;;;;;;;;;5.00;5.00;;;;;24.05;45.05;101983.06;6187126;23;45478;-74
2023/06/24 07:04:42;;;;;;;;;7.67;5.00;;;;;24.01;44.46;101978.56;6187311;23;45344;-72
2023/06/24 07:07:08;;;;;;;;;10.00;7.00;;;;;24.14;44.56;101990.25;6180124;23;46618;-73
2023/06/24 07:09:33;;;;;;;;;7.67;7.00;;;;;24.17;44.98;101987.50;6181997;23;45563;-70
2023/06/24 07:11:59;;;;;;;;;6.00;6.00;;;;;24.30;45.44;101994.63;6182416;23;45394;-73
2023/06/24 07:14:24;;;;;;;;;5.00;4.00;;;;;24.22;45.00;101972.88;6153894;23;45627;-76
2023/06/24 07:16:50;;;;;;;;;3.67;3.67;;;;;24.33;44.26;101969.13;6182940;23;46003;-75
2023/06/24 07:19:15;;;;;;;;;5.00;5.00;;;;;24.46;44.23;101978.97;6181603;23;45316;-77
2023/06/24 07:21:41;;;;;;;;;6.33;4.00;;;;;24.44;44.12;101967.19;6190154;23;45368;-72
2023/06/24 07:24:06;;;;;;;;;5.67;4.00;;;;;24.68;43.72;101987.84;6192788;23;45274;-67
2023/06/24 07:26:31;;;;;;;;;4.00;4.00;;;;;24.70;43.58;101971.44;6190150;23;45354;-73
2023/06/24 07:29:00;;;;;;;;;9.00;7.00;;;;;24.78;44.04;101995.03;6179850;23;45441;-68
2023/06/24 07:31:26;;;;;;;;;6.33;5.00;;;;;24.84;43.41;101984.00;6179856;23;45421;-69
2023/06/24 07:33:51;;;;;;;;;10.00;7.00;;;;;24.91;43.48;101979.34;6182367;23;45348;-71
2023/06/24 07:36:16;;;;;;;;;9.00;7.67;;;;;24.99;43.25;101971.94;6182923;23;45573;-65
2023/06/24 07:38:42;;;;;;;;;6.00;5.00;;;;;25.02;42.88;101971.91;6183667;23;45256;-70
2023/06/24 07:41:07;;;;;;;;;21.33;17.33;;;;;25.19;42.94;101989.91;6152542;23;45799;-70
2023/06/24 07:43:32;;;;;;;;;10.00;8.33;;;;;25.26;42.42;101985.22;6153846;23;45609;-68
2023/06/24 07:45:58;;;;;;;;;8.00;5.00;;;;;25.32;42.40;101987.91;6181497;23;46363;-68
2023/06/24 07:48:23;;;;;;;;;9.33;6.33;;;;;25.36;42.10;101987.84;6181551;23;45394;-69
2023/06/24 07:50:49;;;;;;;;;3.67;3.33;;;;;25.27;42.41;101957.00;6181319;23;45706;-72
2023/06/24 07:53:14;;;;;;;;;6.00;5.00;;;;;25.49;42.25;101983.09;6185985;23;45538;-69
2023/06/24 07:55:40;;;;;;;;;5.67;4.67;;;;;25.53;42.50;101982.09;6182790;23;45941;-68
2023/06/24 07:58:05;;;;;;;;;15.33;13.67;;;;;25.66;42.15;101987.41;6182706;23;45312;-70
2023/06/24 08:00:31;;;;;;;;;25.00;20.00;;;;;25.75;42.37;101989.94;6182754;23;45528;-72
2023/06/24 08:02:59;;;;;;;;;10.00;8.33;;;;;25.77;42.36;101977.13;6180967;23;45442;-71
2023/06/24 08:05:25;;;;;;;;;16.33;14.00;;;;;25.80;42.17;101963.41;6181286;23;45553;-70
2023/06/24 08:07:51;;;;;;;;;6.67;5.67;;;;;25.97;42.16;101978.66;6179980;23;45339;-73
2023/06/24 08:10:17;;;;;;;;;7.33;4.00;;;;;25.93;41.51;101956.75;6181847;23;45322;-70
2023/06/24 08:12:43;;;;;;;;;8.67;6.00;;;;;25.72;41.66;101906.06;6180325;23;45708;-70
2023/06/24 08:15:10;;;;;;;;;7.67;7.67;;;;;26.16;41.63;101974.66;6179377;23;46920;-75
2023/06/24 08:17:36;;;;;;;;;6.00;6.00;;;;;26.17;41.29;101961.84;6181697;23;45382;-73
2023/06/24 08:20:05;;;;;;;;;12.33;10.00;;;;;26.24;41.22;101964.44;6181535;23;45522;-75
2023/06/24 08:22:30;;;;;;;;;6.00;6.00;;;;;26.37;40.88;101972.44;6154976;23;45386;-68
2023/06/24 08:24:56;;;;;;;;;5.33;5.33;;;;;26.40;40.80;101962.31;6180778;23;47341;-75
2023/06/24 08:27:22;;;;;;;;;10.33;9.00;;;;;26.52;40.63;101974.84;6183392;23;45311;-74
2023/06/24 08:29:47;;;;;;;;;10.67;9.33;;;;;26.55;40.42;101963.81;6182867;23;45288;-67
2023/06/24 08:32:13;;;;;;;;;15.33;10.33;;;;;26.70;40.17;101970.84;6184311;23;45260;-65
2023/06/24 08:34:38;;;;;;;;;12.33;8.67;;;;;26.77;40.39;101974.38;6156704;23;47170;-72
2023/06/24 08:37:04;;;;;;;;;22.33;22.33;;;;;26.85;40.16;101969.63;6155646;23;45450;-71
2023/06/24 08:39:29;;;;;;;;;20.33;19.67;;;;;26.90;39.58;101959.44;6181537;23;45428;-70
2023/06/24 08:41:54;;;;;;;;;9.00;8.67;;;;;27.02;39.59;101961.88;6181434;23;45446;-72
2023/06/24 08:44:20;;;;;;;;;13.33;11.00;;;;;27.05;39.96;101949.06;6181387;23;45990;-70
2023/06/24 08:46:46;;;;;;;;;5.00;5.00;;;;;27.20;39.12;101954.19;6181971;23;45296;-68
2023/06/24 08:49:24;;;;;;;;;4.00;4.00;;;;;27.21;38.52;101956.00;6180990;23;45450;-71
2023/06/24 08:52:02;;;;;;;;;5.00;4.00;;;;;27.25;37.96;101954.06;6180872;23;45243;-71
2023/06/24 08:54:29;;;;;;;;;9.33;5.00;;;;;27.32;38.19;101948.44;6180731;23;45429;-69
2023/06/24 08:56:55;;;;;;;;;5.00;5.00;;;;;27.34;37.62;101937.41;6179395;23;45396;-73
2023/06/24 08:59:21;;;;;;;;;5.33;4.00;;;;;27.44;37.47;101940.81;6180581;23;45376;-75
2023/06/24 09:01:47;;;;;;;;;15.00;13.33;;;;;27.50;37.55;101937.94;6154276;23;45415;-77
2023/06/24 09:04:12;;;;;;;;;7.33;5.33;;;;;27.49;36.92;101923.31;6179909;23;45344;-71
2023/06/24 09:06:38;;;;;;;;;5.00;5.00;;;;;27.63;36.91;101941.28;6180639;23;45222;-72
2023/06/24 09:09:04;;;;;;;;;6.33;5.00;;;;;27.69;37.51;101936.50;6180507;23;45347;-71
2023/06/24 09:11:31;;;;;;;;;5.33;4.00;;;;;27.75;37.25;101930.88;6182157;23;45469;-74
2023/06/24 09:13:57;;;;;;;;;7.33;4.67;;;;;27.80;36.94;101932.56;6181038;23;46969;-73
2023/06/24 09:16:24;;;;;;;;;3.33;3.33;;;;;27.80;37.16;101925.25;6180368;23;45407;-71
2023/06/24 09:18:50;;;;;;;;;4.00;3.67;;;;;27.80;36.53;101900.53;6181661;23;45351;-72
2023/06/24 09:21:25;;;;;;;;;7.00;6.00;;;;;27.89;36.33;101902.13;6181638;23;45304;-72
2023/06/24 09:23:58;;;;;;;;;4.00;4.00;;;;;28.03;36.31;101916.41;6156079;23;47123;-71
2023/06/24 09:26:29;;;;;;;;;5.00;5.00;;;;;28.08;36.48;101922.69;6181701;23;45369;-73
2023/06/24 09:28:55;;;;;;;;;6.33;5.33;;;;;28.03;36.55;101916.41;6181933;23;45329;-69
2023/06/24 09:31:22;;;;;;;;;4.67;4.67;;;;;27.79;36.08;101892.34;6181284;23;45382;-76
2023/06/24 09:33:48;;;;;;;;;6.33;3.33;;;;;27.97;36.55;101919.34;6154133;23;47187;-71
2023/06/24 09:36:15;;;;;;;;;18.67;18.33;;;;;27.92;36.42;101894.69;6180802;23;45313;-75
2023/06/24 09:38:44;;;;;;;;;8.00;6.33;;;;;28.10;36.12;101904.31;6181578;23;45320;-70
2023/06/24 09:41:09;;;;;;;;;4.67;4.67;;;;;28.17;36.39;101901.38;6185401;23;45461;-71
2023/06/24 09:43:36;;;;;;;;;4.67;3.67;;;;;28.12;35.58;101891.41;6157818;23;45501;-76
2023/06/24 09:46:04;;;;;;;;;5.33;4.67;;;;;28.13;35.67;101887.72;6187046;23;45382;-74
2023/06/24 09:48:30;;;;;;;;;7.00;7.00;;;;;28.17;36.28;101893.13;6188894;23;45265;-69
2023/06/24 09:51:03;;;;;;;;;7.67;6.33;;;;;28.20;35.49;101893.94;6185057;23;45292;-76
2023/06/24 09:53:34;;;;;;;;;5.67;4.67;;;;;28.21;36.10;101884.75;6158753;23;47012;-70
2023/06/24 09:56:01;;;;;;;;;5.67;5.00;;;;;28.28;35.89;101874.50;6183574;23;45354;-68
2023/06/24 09:58:34;;;;;;;;;5.00;5.00;;;;;28.30;36.32;101870.72;6187006;23;45188;-71
2023/06/24 10:01:04;;;;;;;;;5.33;5.33;;;;;28.34;36.66;101879.78;6185534;23;45351;-69
2023/06/24 10:03:33;;;;;;;;;7.00;6.00;;;;;28.37;36.75;101871.44;6182303;23;45327;-74
2023/06/24 10:06:00;;;;;;;;;7.33;6.00;;;;;28.42;36.70;101874.97;6184706;23;45211;-72
2023/06/24 10:08:27;;;;;;;;;7.33;4.33;;;;;28.45;36.61;101858.38;6184042;23;45348;-74
2023/06/24 10:10:52;;;;;;;;;8.00;6.67;;;;;28.39;36.59;101846.66;6184465;23;45193;-73
2023/06/24 10:13:18;;;;;;;;;10.33;7.00;;;;;28.45;36.46;101851.97;6184285;23;45454;-74
2023/06/24 10:15:48;;;;;;;;;8.00;6.33;;;;;28.39;36.39;101833.81;6184198;23;45412;-77
2023/06/24 10:18:36;;;;;;;;;8.67;7.00;;;;;28.47;36.16;101853.72;6156690;23;45358;-72
2023/06/24 10:21:09;;;;;;;;;7.33;5.00;;;;;28.43;36.71;101863.03;6183895;23;45480;-76
2023/06/24 10:23:53;;;;;;;;;6.33;6.33;;;;;28.40;36.56;101849.38;6181956;23;45411;-72
2023/06/24 10:26:28;;;;;;;;;5.33;5.33;;;;;28.40;36.66;101849.38;6181216;23;45253;-75
2023/06/24 10:29:17;;;;;;;;;8.00;7.00;;;;;28.42;36.66;101839.22;6182137;23;45283;-75
2023/06/24 10:31:48;;;;;;;;;8.33;7.67;;;;;28.48;36.75;101839.03;6182299;23;45241;-72
2023/06/24 10:34:23;;;;;;;;;5.33;5.33;;;;;28.56;36.53;101830.59;6181180;23;45455;-76
2023/06/24 10:37:00;;;;;;;;;6.33;6.33;;;;;28.63;36.35;101832.19;6181113;23;45484;-74
2023/06/24 10:39:38;;;;;;;;;5.00;5.00;;;;;28.64;36.23;101823.00;6180330;23;45319;-71
2023/06/24 10:42:26;;;;;;;;;5.00;5.00;;;;;28.71;36.59;101825.53;6181414;23;45431;-75
2023/06/24 10:44:52;;;;;;;;;7.00;7.00;;;;;28.73;36.16;101818.16;6180750;23;45437;-77
2023/06/24 10:47:18;;;;;;;;;10.00;7.00;;;;;28.72;36.22;101821.84;6180899;23;45382;-72
2023/06/24 10:49:44;;;;;;;;;7.67;7.00;;;;;28.73;35.90;101810.78;6181881;23;45310;-76
2023/06/24 10:52:10;;;;;;;;;9.33;7.00;;;;;28.75;35.93;101817.13;6182382;23;45272;-74
2023/06/24 10:54:41;;;;;;;;;6.67;6.67;;;;;28.70;36.23;101808.13;6180915;23;46558;-76
2023/06/24 10:57:07;;;;;;;;;9.67;9.00;;;;;28.71;36.07;101809.03;6180050;23;45399;-77
2023/06/24 10:59:40;;;;;;;;;9.33;9.33;;;;;28.74;36.63;101800.69;6180077;23;45385;-71
2023/06/24 11:02:05;;;;;;;;;11.33;7.00;;;;;28.78;36.68;101797.78;6153935;23;45367;-71
2023/06/24 11:04:30;;;;;;;;;6.67;6.67;;;;;28.75;36.34;101786.88;6152969;23;47401;-71
2023/06/24 11:07:00;;;;;;;;;8.00;7.00;;;;;28.90;35.94;101803.81;6180393;23;45473;-73
2023/06/24 11:09:26;;;;;;;;;10.33;8.33;;;;;28.90;35.92;101793.72;6179831;23;45261;-71
2023/06/24 11:11:52;;;;;;;;;4.33;4.33;;;;;28.91;36.45;101795.53;6180895;23;45310;-75
2023/06/24 11:14:24;;;;;;;;;8.00;8.00;;;;;28.91;35.65;101787.28;6180374;23;45304;-75
2023/06/24 11:16:50;;;;;;;;;7.33;7.33;;;;;28.95;35.79;101793.56;6183245;23;45406;-70
2023/06/24 11:19:16;;;;;;;;;12.33;11.00;;;;;28.93;35.59;101781.72;6182716;23;45391;-72
2023/06/24 11:21:41;;;;;;;;;9.33;9.33;;;;;28.93;35.74;101777.09;6181917;23;45544;-71
2023/06/24 11:24:28;;;;;;;;;15.00;13.67;;;;;29.06;35.71;101785.84;6181421;23;45338;-77